Time;durP1;ratioP1;P1;durP2;ratioP2;P2;SDS_P1;SDS_P2;PMS_P1;PMS_P2;Temp;Humidity;BMP_temperature;BMP_pressure;BME280_temperature;BME280_humidity;BME280_pressure;Samples;Min_cycle;Max_cycle;Signal;HPM_P1;HPM_P2
2023/04/11 00:00:03;;;;;;;6.50;6.00;;;13.30;99.90;;;;;;4928535;29;20740;-72
2023/04/11 00:02:33;;;;;;;6.07;5.67;;;13.30;99.90;;;;;;4928626;29;20212;-73
2023/04/11 00:05:02;;;;;;;6.30;5.80;;;13.20;99.90;;;;;;4929010;29;20213;-73
2023/04/11 00:07:30;;;;;;;6.27;5.77;;;13.30;99.90;;;;;;4928685;29;20211;-73
2023/04/11 00:09:57;;;;;;;7.03;6.50;;;13.30;99.90;;;;;;4928402;29;20302;-73
2023/04/11 00:12:24;;;;;;;6.47;5.97;;;13.20;99.90;;;;;;4928597;29;20315;-73
2023/04/11 00:14:52;;;;;;;6.23;5.73;;;13.20;99.90;;;;;;4928833;29;20885;-72
2023/04/11 00:17:20;;;;;;;6.60;6.10;;;13.20;99.90;;;;;;4928224;29;20992;-72
2023/04/11 00:19:47;;;;;;;6.23;5.80;;;13.20;99.90;;;;;;4928108;29;20299;-73
2023/04/11 00:22:16;;;;;;;7.00;6.40;;;13.20;99.90;;;;;;4928944;29;20208;-73
2023/04/11 00:24:45;;;;;;;6.00;5.50;;;13.20;99.90;;;;;;4929146;29;20208;-73
2023/04/11 00:27:12;;;;;;;5.53;5.13;;;13.10;99.90;;;;;;4928488;29;20207;-73
2023/04/11 00:29:39;;;;;;;5.67;5.27;;;13.10;99.90;;;;;;4928229;29;20299;-73
2023/04/11 00:32:06;;;;;;;6.27;5.67;;;13.10;99.90;;;;;;4928239;29;20243;-73
2023/04/11 00:34:34;;;;;;;6.37;5.87;;;13.10;99.90;;;;;;4928168;29;20243;-73
2023/04/11 00:37:01;;;;;;;6.07;5.60;;;13.00;99.90;;;;;;4928272;29;20223;-73
2023/04/11 00:39:29;;;;;;;6.20;5.60;;;13.10;99.90;;;;;;4928478;29;20223;-73
2023/04/11 00:42:06;;;;;;;5.97;5.57;;;13.10;99.90;;;;;;4927782;29;20234;-73
2023/04/11 00:44:34;;;;;;;6.90;6.20;;;13.10;99.90;;;;;;4928349;29;20204;-73
2023/04/11 00:47:02;;;;;;;6.50;5.87;;;13.10;99.90;;;;;;4928391;29;20297;-73
2023/04/11 00:49:30;;;;;;;7.27;6.00;;;13.10;99.90;;;;;;4929349;29;20204;-73
2023/04/11 00:51:58;;;;;;;6.97;5.73;;;13.00;99.90;;;;;;4933721;28;20618;-73
2023/04/11 00:54:28;;;;;;;6.20;5.70;;;13.00;99.90;;;;;;4928001;29;20236;-73
2023/04/11 00:56:56;;;;;;;6.53;6.00;;;13.00;99.90;;;;;;4927705;29;20243;-73
2023/04/11 00:59:25;;;;;;;5.90;5.40;;;13.00;99.90;;;;;;4919773;29;20586;-73
2023/04/11 01:01:52;;;;;;;5.60;5.20;;;13.00;99.90;;;;;;4928091;29;20232;-73
2023/04/11 01:04:20;;;;;;;5.83;5.33;;;13.00;99.90;;;;;;4927709;29;20330;-73
2023/04/11 01:06:51;;;;;;;6.00;5.60;;;12.90;99.90;;;;;;4928022;29;20208;-73
2023/04/11 01:09:19;;;;;;;6.17;5.77;;;12.90;99.90;;;;;;4928269;29;20196;-73
2023/04/11 01:11:48;;;;;;;6.10;5.60;;;12.90;99.90;;;;;;4928337;29;20255;-72
2023/04/11 01:14:15;;;;;;;6.93;6.33;;;12.90;99.90;;;;;;4928132;29;20332;-74
2023/04/11 01:16:45;;;;;;;6.50;6.00;;;12.90;99.90;;;;;;4927849;29;20718;-74
2023/04/11 01:19:16;;;;;;;6.23;5.73;;;12.90;99.90;;;;;;4937054;29;20337;-74
2023/04/11 01:21:44;;;;;;;6.10;5.60;;;12.80;99.90;;;;;;4930772;28;20231;-74
2023/04/11 01:24:13;;;;;;;6.50;6.00;;;12.80;99.90;;;;;;4931609;29;21128;-74
2023/04/11 01:26:40;;;;;;;6.27;5.77;;;12.80;99.90;;;;;;4947341;28;20234;-74
2023/04/11 01:29:07;;;;;;;5.83;5.43;;;12.80;99.90;;;;;;4941161;28;20224;-74
2023/04/11 01:31:33;;;;;;;6.67;6.10;;;12.80;99.90;;;;;;4931669;29;20575;-74
2023/04/11 01:34:01;;;;;;;5.87;5.47;;;12.80;99.90;;;;;;4931449;29;20239;-74
2023/04/11 01:36:29;;;;;;;6.77;6.27;;;12.80;99.90;;;;;;4936408;29;20204;-73
2023/04/11 01:38:57;;;;;;;6.40;5.80;;;12.80;99.90;;;;;;4941735;28;20821;-73
2023/04/11 01:41:26;;;;;;;6.23;5.83;;;12.80;99.90;;;;;;4931563;29;20208;-73
2023/04/11 01:43:53;;;;;;;6.27;5.77;;;12.70;99.90;;;;;;4931278;29;20882;-73
2023/04/11 01:46:21;;;;;;;6.10;5.60;;;12.70;99.90;;;;;;4931183;29;20327;-73
2023/04/11 01:48:49;;;;;;;6.17;5.67;;;12.70;99.90;;;;;;4931249;29;20295;-73
2023/04/11 01:51:16;;;;;;;5.83;5.33;;;12.70;99.90;;;;;;4931144;29;20698;-75
2023/04/11 01:53:44;;;;;;;6.20;5.70;;;12.70;99.90;;;;;;4931421;29;20275;-75
2023/04/11 01:56:12;;;;;;;5.97;5.57;;;12.70;99.90;;;;;;4931396;29;21105;-75
2023/04/11 01:58:42;;;;;;;6.00;5.53;;;12.70;99.90;;;;;;4931197;29;20204;-74
2023/04/11 02:01:10;;;;;;;6.47;5.97;;;12.70;99.90;;;;;;4930894;29;20846;-72
2023/04/11 02:03:37;;;;;;;6.07;5.67;;;12.70;99.90;;;;;;4931372;29;20216;-72
2023/04/11 02:06:05;;;;;;;6.43;5.80;;;12.70;99.90;;;;;;4931223;29;20197;-72
2023/04/11 02:08:32;;;;;;;7.53;5.73;;;12.70;99.90;;;;;;4931314;29;20204;-72
2023/04/11 02:10:58;;;;;;;5.57;5.17;;;12.70;99.90;;;;;;4930818;29;20302;-72
2023/04/11 02:13:25;;;;;;;6.10;5.50;;;12.60;99.90;;;;;;4931089;29;20945;-75
2023/04/11 02:15:54;;;;;;;5.17;4.77;;;12.60;99.90;;;;;;4930162;29;20240;-72
2023/04/11 02:18:21;;;;;;;5.93;5.50;;;12.60;99.90;;;;;;4929933;29;20534;-73
2023/04/11 02:20:49;;;;;;;5.97;5.50;;;12.60;99.90;;;;;;4925602;29;20308;-72
2023/04/11 02:23:15;;;;;;;6.13;5.27;;;12.60;99.90;;;;;;4927198;29;20985;-72
2023/04/11 02:25:42;;;;;;;5.93;5.43;;;12.60;99.90;;;;;;4930289;29;20239;-71
2023/04/11 02:28:09;;;;;;;6.30;5.80;;;12.50;99.90;;;;;;4916497;29;20213;-71
2023/04/11 02:30:36;;;;;;;5.53;5.13;;;12.50;99.90;;;;;;4928209;29;20663;-72
2023/04/11 02:33:05;;;;;;;5.67;5.27;;;12.50;99.90;;;;;;4928786;29;20208;-71
2023/04/11 02:35:32;;;;;;;5.40;5.00;;;12.50;99.90;;;;;;4928524;29;20201;-69
2023/04/11 02:37:59;;;;;;;6.03;5.63;;;12.50;99.90;;;;;;4928253;29;20312;-69
2023/04/11 02:40:26;;;;;;;5.87;5.43;;;12.50;99.90;;;;;;4918027;29;20295;-71
2023/04/11 02:42:53;;;;;;;5.90;5.30;;;12.50;99.90;;;;;;4928325;29;20726;-70
2023/04/11 02:45:20;;;;;;;5.23;4.90;;;12.50;99.90;;;;;;4928780;29;20235;-69
2023/04/11 02:47:47;;;;;;;5.63;5.23;;;12.50;99.90;;;;;;4928961;29;20295;-69
2023/04/11 02:50:15;;;;;;;5.90;5.50;;;12.50;99.90;;;;;;4929123;29;20290;-70
2023/04/11 02:52:44;;;;;;;5.73;5.23;;;12.50;99.90;;;;;;4928330;29;20676;-69
2023/04/11 02:55:11;;;;;;;5.43;5.03;;;12.50;99.90;;;;;;4921722;29;20714;-71
2023/04/11 02:57:38;;;;;;;5.27;4.90;;;12.50;99.90;;;;;;4929914;29;20572;-70
2023/04/11 03:00:08;;;;;;;5.80;5.27;;;12.50;99.90;;;;;;4929054;29;20220;-70
2023/04/11 03:02:35;;;;;;;5.97;4.70;;;12.50;99.90;;;;;;4929476;29;20206;-70
2023/04/11 03:05:02;;;;;;;5.33;4.93;;;12.50;99.90;;;;;;4929406;29;20311;-71
2023/04/11 03:07:31;;;;;;;4.80;4.50;;;12.50;99.90;;;;;;4928357;29;20940;-71
2023/04/11 03:09:58;;;;;;;4.87;4.57;;;12.50;99.90;;;;;;4929885;29;20212;-71
2023/04/11 03:12:26;;;;;;;4.97;4.57;;;12.50;99.90;;;;;;4929706;29;20307;-71
2023/04/11 03:14:53;;;;;;;5.37;4.93;;;12.50;99.90;;;;;;4929718;29;20240;-71
2023/04/11 03:17:20;;;;;;;4.87;4.47;;;12.50;99.90;;;;;;4929848;29;20251;-71
2023/04/11 03:19:47;;;;;;;4.97;4.57;;;12.50;99.90;;;;;;4929891;29;20801;-71
2023/04/11 03:22:14;;;;;;;4.83;4.53;;;12.50;99.90;;;;;;4930055;29;20205;-71
2023/04/11 03:24:42;;;;;;;4.90;4.60;;;12.50;99.90;;;;;;4930118;29;20204;-71
2023/04/11 03:27:09;;;;;;;4.83;4.53;;;12.50;99.90;;;;;;4930199;29;20310;-71
2023/04/11 03:29:36;;;;;;;5.03;4.63;;;12.50;99.90;;;;;;4918089;29;20237;-71
2023/04/11 03:32:03;;;;;;;4.80;4.40;;;12.50;99.90;;;;;;4911072;29;20217;-71
2023/04/11 03:34:30;;;;;;;5.43;5.03;;;12.50;99.90;;;;;;4910828;29;20356;-71
2023/04/11 03:36:57;;;;;;;5.43;5.03;;;12.50;99.90;;;;;;4910881;29;20324;-71
2023/04/11 03:39:24;;;;;;;4.53;4.23;;;12.50;99.90;;;;;;4910755;29;20328;-71
2023/04/11 03:41:53;;;;;;;5.07;4.67;;;12.50;99.90;;;;;;4910142;29;21061;-71
2023/04/11 03:44:20;;;;;;;4.90;4.50;;;12.50;99.90;;;;;;4909988;29;20775;-71
2023/04/11 03:46:46;;;;;;;4.67;4.37;;;12.40;99.90;;;;;;4910549;29;20587;-71
2023/04/11 03:49:13;;;;;;;5.07;4.67;;;12.30;99.90;;;;;;4910426;29;20315;-71
2023/04/11 03:51:40;;;;;;;4.73;4.40;;;12.20;99.90;;;;;;4909422;29;20905;-71
2023/04/11 03:54:07;;;;;;;4.80;4.40;;;12.10;99.90;;;;;;4910164;29;20471;-71
2023/04/11 03:56:34;;;;;;;4.90;4.50;;;12.10;99.90;;;;;;4911035;29;20216;-71
2023/04/11 03:59:02;;;;;;;4.83;4.53;;;12.10;99.90;;;;;;4917347;29;20310;-71
2023/04/11 04:01:30;;;;;;;4.73;4.43;;;12.00;99.90;;;;;;4929525;29;20311;-71
2023/04/11 04:03:59;;;;;;;4.53;4.23;;;11.90;99.90;;;;;;4928855;29;20235;-71
2023/04/11 04:06:27;;;;;;;4.23;3.93;;;11.90;99.90;;;;;;4929153;29;20244;-71
2023/04/11 04:08:54;;;;;;;5.30;4.80;;;11.90;99.90;;;;;;4929561;29;20227;-71
2023/04/11 04:11:21;;;;;;;5.07;4.67;;;11.70;99.90;;;;;;4929380;29;20670;-71
2023/04/11 04:13:48;;;;;;;5.17;4.77;;;11.50;99.90;;;;;;4929183;29;20332;-71
2023/04/11 04:16:16;;;;;;;5.60;4.90;;;11.20;99.90;;;;;;4928658;29;20254;-71
2023/04/11 04:18:43;;;;;;;5.40;5.00;;;11.10;99.90;;;;;;4928888;29;20238;-71
2023/04/11 04:21:11;;;;;;;6.30;5.70;;;11.00;99.90;;;;;;4928788;29;20958;-71
2023/04/11 04:23:46;;;;;;;5.93;5.43;;;10.80;99.90;;;;;;4928762;29;20215;-71
2023/04/11 04:26:14;;;;;;;6.17;5.67;;;10.60;99.90;;;;;;4928474;29;20647;-71
2023/04/11 04:28:45;;;;;;;5.90;5.40;;;10.60;99.90;;;;;;4928388;29;20327;-71
2023/04/11 04:31:13;;;;;;;6.93;6.00;;;10.40;99.90;;;;;;4928426;29;20236;-71
2023/04/11 04:33:42;;;;;;;7.33;6.03;;;10.30;99.90;;;;;;4928404;29;20291;-71
2023/04/11 04:36:11;;;;;;;6.43;5.93;;;10.50;99.90;;;;;;4928023;29;20695;-71
2023/04/11 04:38:40;;;;;;;8.63;5.90;;;10.60;99.90;;;;;;4928165;29;20248;-71
2023/04/11 04:41:14;;;;;;;7.00;6.13;;;10.60;99.90;;;;;;4928412;29;20298;-71
2023/04/11 04:43:41;;;;;;;7.03;6.33;;;10.70;99.90;;;;;;4928595;29;20199;-71
2023/04/11 04:46:09;;;;;;;7.47;6.77;;;10.80;99.90;;;;;;4928408;29;20212;-71
2023/04/11 04:48:35;;;;;;;7.30;6.67;;;10.80;99.90;;;;;;4928421;29;20220;-71
2023/04/11 04:51:05;;;;;;;7.23;6.67;;;10.90;99.90;;;;;;4927956;29;20798;-71
2023/04/11 04:53:33;;;;;;;6.90;6.30;;;10.90;99.90;;;;;;4914374;29;20212;-71
2023/04/11 04:56:01;;;;;;;6.67;6.07;;;10.90;99.90;;;;;;4927800;29;20220;-71
2023/04/11 04:58:28;;;;;;;6.47;5.90;;;10.90;99.90;;;;;;4928596;29;20231;-71
2023/04/11 05:00:55;;;;;;;6.53;5.93;;;10.90;99.90;;;;;;4913477;29;20727;-71
2023/04/11 05:03:22;;;;;;;6.33;5.83;;;10.90;99.90;;;;;;4909524;29;20592;-71
2023/04/11 05:05:49;;;;;;;6.80;6.10;;;10.90;99.90;;;;;;4909608;29;20308;-71
2023/04/11 05:08:20;;;;;;;6.67;6.07;;;10.90;99.90;;;;;;4909130;29;20690;-71
2023/04/11 05:10:47;;;;;;;6.57;5.97;;;10.90;99.90;;;;;;4909819;29;20197;-70
2023/04/11 05:13:14;;;;;;;6.97;6.33;;;10.90;99.90;;;;;;4909508;29;20274;-71
2023/04/11 05:15:47;;;;;;;6.97;6.37;;;10.90;99.90;;;;;;4908858;29;20240;-71
2023/04/11 05:18:14;;;;;;;6.90;6.30;;;10.80;99.90;;;;;;4918368;29;20212;-71
2023/04/11 05:20:41;;;;;;;6.70;6.03;;;10.90;99.90;;;;;;4928646;29;20286;-71
2023/04/11 05:23:08;;;;;;;7.20;6.50;;;10.90;99.90;;;;;;4928519;29;20299;-71
2023/04/11 05:25:36;;;;;;;6.93;6.33;;;10.90;99.90;;;;;;4928301;29;20218;-70
2023/04/11 05:28:03;;;;;;;7.77;7.10;;;10.90;99.90;;;;;;4928564;29;20295;-71
2023/04/11 05:30:30;;;;;;;9.10;8.20;;;10.80;99.90;;;;;;4928329;29;20745;-71
2023/04/11 05:33:33;;;;;;;7.20;6.47;;;10.70;99.90;;;;;;4928259;29;20738;-71
2023/04/11 05:36:00;;;;;;;6.50;6.00;;;10.60;99.90;;;;;;4917345;29;20243;-71
2023/04/11 05:38:27;;;;;;;7.07;6.37;;;10.30;99.90;;;;;;4928047;29;20311;-71
2023/04/11 05:40:55;;;;;;;9.40;8.60;;;10.00;99.90;;;;;;4927951;29;20583;-71
2023/04/11 05:43:22;;;;;;;7.67;6.97;;;10.00;99.90;;;;;;4928301;29;20746;-71
2023/04/11 05:45:49;;;;;;;8.43;6.87;;;10.10;99.90;;;;;;4928022;29;20252;-71
2023/04/11 05:48:18;;;;;;;7.33;6.73;;;9.90;99.90;;;;;;4941655;29;20204;-71
2023/04/11 05:50:45;;;;;;;7.60;6.90;;;10.00;99.90;;;;;;4928173;29;20284;-71
2023/04/11 05:53:12;;;;;;;8.17;7.37;;;9.90;99.90;;;;;;4928272;29;20327;-71
2023/04/11 05:55:39;;;;;;;7.30;6.70;;;10.00;99.90;;;;;;4928194;29;20346;-71
2023/04/11 05:58:08;;;;;;;7.73;6.83;;;10.00;99.90;;;;;;4928228;29;20212;-71
2023/04/11 06:00:37;;;;;;;8.27;7.20;;;9.90;99.90;;;;;;4927938;29;21017;-71
2023/04/11 06:03:04;;;;;;;7.37;6.77;;;9.90;99.90;;;;;;4928140;29;20212;-71
2023/04/11 06:05:31;;;;;;;6.50;6.00;;;9.90;99.90;;;;;;4928267;29;20307;-71
2023/04/11 06:07:59;;;;;;;7.10;6.40;;;10.00;99.90;;;;;;4915712;29;20927;-71
2023/04/11 06:10:26;;;;;;;7.93;7.23;;;10.10;99.90;;;;;;4910457;29;20212;-70
2023/04/11 06:12:53;;;;;;;7.40;6.70;;;10.10;99.90;;;;;;4928264;29;20841;-71
2023/04/11 06:15:22;;;;;;;7.20;6.60;;;10.10;99.90;;;;;;4931302;29;20250;-71
2023/04/11 06:17:49;;;;;;;8.50;7.13;;;10.00;99.90;;;;;;4931751;29;20278;-71
2023/04/11 06:20:16;;;;;;;7.20;6.60;;;10.10;99.90;;;;;;4931749;29;20299;-71
2023/04/11 06:22:45;;;;;;;7.40;6.80;;;10.10;99.90;;;;;;4931718;29;20291;-71
2023/04/11 06:25:13;;;;;;;7.70;6.90;;;10.10;99.90;;;;;;4931248;29;20267;-71
2023/04/11 06:27:40;;;;;;;7.33;6.70;;;10.10;99.90;;;;;;4931178;29;20247;-71
2023/04/11 06:30:08;;;;;;;6.83;6.30;;;10.00;99.90;;;;;;4915041;29;20224;-71
2023/04/11 06:32:36;;;;;;;7.07;6.47;;;10.00;99.90;;;;;;4912222;29;20699;-71
2023/04/11 06:35:03;;;;;;;7.27;6.60;;;10.00;99.90;;;;;;4911910;29;20388;-71
2023/04/11 06:37:30;;;;;;;7.83;7.13;;;10.00;99.90;;;;;;4912036;29;20328;-71
2023/04/11 06:39:59;;;;;;;7.50;6.80;;;10.10;99.90;;;;;;4912058;29;20213;-71
2023/04/11 06:42:26;;;;;;;7.80;7.10;;;10.00;99.90;;;;;;4911828;29;20240;-71
2023/04/11 06:44:53;;;;;;;7.27;6.60;;;10.00;99.90;;;;;;4917783;29;20690;-71
2023/04/11 06:47:20;;;;;;;7.40;6.80;;;10.10;99.90;;;;;;4930856;29;20216;-71
2023/04/11 06:49:48;;;;;;;7.40;6.70;;;10.00;99.90;;;;;;4930746;29;20307;-71
2023/04/11 06:52:15;;;;;;;6.97;6.37;;;10.10;99.90;;;;;;4930591;29;20675;-71
2023/04/11 06:54:42;;;;;;;7.60;6.63;;;10.10;99.90;;;;;;4930757;29;20234;-71
2023/04/11 06:57:09;;;;;;;7.30;6.63;;;10.10;99.90;;;;;;4930603;29;21019;-71
2023/04/11 06:59:36;;;;;;;7.27;6.57;;;10.20;99.90;;;;;;4918772;29;20216;-71
2023/04/11 07:02:03;;;;;;;6.80;6.30;;;10.20;99.90;;;;;;4911581;29;20536;-71
2023/04/11 07:04:30;;;;;;;7.13;6.53;;;10.10;99.90;;;;;;4911720;29;20319;-71
2023/04/11 07:06:58;;;;;;;7.00;6.40;;;10.10;99.90;;;;;;4910869;29;20633;-71
2023/04/11 07:09:25;;;;;;;7.43;6.73;;;10.10;99.90;;;;;;4911383;29;20821;-71
2023/04/11 07:11:52;;;;;;;8.17;6.67;;;10.20;99.90;;;;;;4911463;29;20672;-71
2023/04/11 07:14:19;;;;;;;6.70;6.10;;;10.20;99.90;;;;;;4911244;29;20304;-71
2023/04/11 07:16:46;;;;;;;7.27;6.23;;;10.30;99.90;;;;;;4911013;29;20253;-71
2023/04/11 07:19:13;;;;;;;7.83;6.27;;;10.30;99.90;;;;;;4927414;29;20327;-71
2023/04/11 07:21:39;;;;;;;7.37;6.70;;;10.40;99.90;;;;;;4930023;29;20220;-71
2023/04/11 07:24:09;;;;;;;7.13;6.50;;;10.40;99.90;;;;;;4930155;29;20312;-71
2023/04/11 07:26:37;;;;;;;7.90;6.40;;;10.40;99.90;;;;;;4928965;29;20231;-71
2023/04/11 07:29:04;;;;;;;6.97;6.10;;;10.30;99.90;;;;;;4930038;29;20216;-71
2023/04/11 07:31:31;;;;;;;7.27;6.57;;;10.10;99.90;;;;;;4929790;29;20212;-71
2023/04/11 07:33:58;;;;;;;7.50;6.33;;;10.20;99.90;;;;;;4930128;29;20239;-71
2023/04/11 07:36:25;;;;;;;7.23;6.40;;;10.20;99.90;;;;;;4930062;29;20324;-70
2023/04/11 07:38:52;;;;;;;7.20;6.50;;;10.20;99.90;;;;;;4929610;29;20211;-71
2023/04/11 07:41:21;;;;;;;8.17;7.37;;;10.20;99.90;;;;;;4929583;29;20220;-71
2023/04/11 07:43:48;;;;;;;9.80;8.27;;;10.30;99.90;;;;;;4929627;29;20303;-71
2023/04/11 07:46:14;;;;;;;6.83;6.13;;;10.40;99.90;;;;;;4929660;29;20208;-71
2023/04/11 07:48:42;;;;;;;6.33;5.73;;;10.50;99.90;;;;;;4929339;29;20240;-70
2023/04/11 07:51:09;;;;;;;7.37;6.07;;;10.50;99.90;;;;;;4929417;29;20216;-70
2023/04/11 07:53:36;;;;;;;6.50;5.90;;;10.50;99.90;;;;;;4929631;29;20216;-71
2023/04/11 07:56:03;;;;;;;6.40;5.90;;;10.40;99.90;;;;;;4929467;29;20264;-71
2023/04/11 07:58:32;;;;;;;6.87;6.20;;;10.30;99.90;;;;;;4929266;29;20216;-70
2023/04/11 08:01:01;;;;;;;6.00;5.50;;;10.30;99.90;;;;;;4928930;29;20319;-71
2023/04/11 08:03:27;;;;;;;5.60;5.10;;;10.30;99.90;;;;;;4929042;29;20550;-71
2023/04/11 08:05:54;;;;;;;4.53;4.13;;;10.20;99.90;;;;;;4929206;29;20312;-71
2023/04/11 08:08:21;;;;;;;3.93;3.60;;;10.00;99.90;;;;;;4929175;29;20204;-71
2023/04/11 08:10:48;;;;;;;4.17;3.10;;;9.90;99.90;;;;;;4929324;29;20212;-71
2023/04/11 08:13:15;;;;;;;3.70;3.40;;;9.80;99.90;;;;;;4929182;29;20216;-71
2023/04/11 08:15:44;;;;;;;2.93;2.67;;;9.80;99.90;;;;;;4928719;29;20256;-71
2023/04/11 08:18:11;;;;;;;2.70;2.43;;;9.80;99.90;;;;;;4928846;29;20761;-71
2023/04/11 08:20:39;;;;;;;3.00;2.70;;;9.70;99.90;;;;;;4928860;29;20216;-71
2023/04/11 08:23:08;;;;;;;2.67;2.57;;;9.80;99.90;;;;;;4928765;29;20949;-71
2023/04/11 08:25:35;;;;;;;2.40;2.20;;;9.70;99.90;;;;;;4929197;29;20232;-71
2023/04/11 08:28:03;;;;;;;2.50;1.73;;;9.70;99.90;;;;;;4929030;29;20711;-71
2023/04/11 08:30:30;;;;;;;3.80;1.97;;;9.70;99.90;;;;;;4928713;29;20322;-71
2023/04/11 08:32:58;;;;;;;3.03;1.93;;;9.70;99.90;;;;;;4928428;29;20702;-71
2023/04/11 08:35:26;;;;;;;3.60;1.60;;;9.60;99.90;;;;;;4928564;29;20240;-71
2023/04/11 08:37:52;;;;;;;3.87;1.87;;;9.80;99.90;;;;;;4927101;29;20315;-71
2023/04/11 08:40:20;;;;;;;3.30;1.80;;;9.80;99.90;;;;;;4928209;29;20299;-71
2023/04/11 08:42:46;;;;;;;3.80;1.50;;;9.80;99.90;;;;;;4928652;29;20216;-71
2023/04/11 08:45:13;;;;;;;2.07;1.70;;;9.80;99.90;;;;;;4927831;29;20247;-71
2023/04/11 08:47:40;;;;;;;1.77;1.67;;;9.80;99.90;;;;;;4928542;29;21146;-71
2023/04/11 08:50:09;;;;;;;1.70;1.53;;;9.80;99.90;;;;;;4928350;29;20290;-71
2023/04/11 08:52:39;;;;;;;1.53;1.43;;;9.90;99.90;;;;;;4928421;29;20232;-71
2023/04/11 08:55:06;;;;;;;3.60;2.10;;;9.90;99.90;;;;;;4928346;29;20327;-71
2023/04/11 08:57:36;;;;;;;3.63;2.23;;;9.80;99.90;;;;;;4928572;29;20291;-71
2023/04/11 09:00:12;;;;;;;2.87;2.27;;;9.90;99.90;;;;;;4921151;29;20219;-71
2023/04/11 09:02:55;;;;;;;2.03;1.90;;;10.00;99.90;;;;;;4928733;29;20203;-71
2023/04/11 09:05:28;;;;;;;3.90;2.23;;;10.10;99.90;;;;;;4928791;29;20239;-71
2023/04/11 09:07:56;;;;;;;5.07;2.30;;;10.20;99.90;;;;;;4915926;29;20256;-71
2023/04/11 09:10:24;;;;;;;4.53;2.03;;;10.40;99.90;;;;;;4909531;29;20240;-71
2023/04/11 09:12:51;;;;;;;5.27;2.00;;;10.50;99.90;;;;;;4909449;29;20723;-71
2023/04/11 09:15:20;;;;;;;4.20;2.00;;;10.50;99.90;;;;;;4909503;29;20299;-71
2023/04/11 09:17:48;;;;;;;3.60;1.83;;;10.50;99.90;;;;;;4913914;29;20718;-71
2023/04/11 09:20:21;;;;;;;3.73;1.97;;;10.60;99.90;;;;;;4928595;29;20212;-71
2023/04/11 09:22:50;;;;;;;3.77;2.17;;;10.70;99.90;;;;;;4928081;29;20208;-70
2023/04/11 09:25:20;;;;;;;2.83;1.60;;;10.60;99.90;;;;;;4928237;29;20282;-70
2023/04/11 09:27:49;;;;;;;3.80;1.83;;;10.50;99.90;;;;;;4928161;29;20263;-71
2023/04/11 09:30:23;;;;;;;4.97;2.10;;;10.50;99.90;;;;;;4928207;29;20247;-71
2023/04/11 09:32:52;;;;;;;3.90;2.07;;;10.50;99.90;;;;;;4927464;29;20294;-72
2023/04/11 09:35:22;;;;;;;3.90;1.50;;;10.50;99.90;;;;;;4928462;29;20219;-71
2023/04/11 09:37:55;;;;;;;7.17;2.37;;;10.60;99.90;;;;;;4928151;29;20201;-71
2023/04/11 09:40:23;;;;;;;3.33;1.50;;;10.70;99.90;;;;;;4928337;29;20232;-70
2023/04/11 09:42:57;;;;;;;3.30;1.93;;;10.80;99.90;;;;;;4928370;29;20212;-71
2023/04/11 09:45:26;;;;;;;2.83;1.77;;;10.80;99.90;;;;;;4928008;29;20204;-71
2023/04/11 09:47:56;;;;;;;2.80;1.53;;;10.80;99.90;;;;;;4928468;29;20746;-71
2023/04/11 09:50:23;;;;;;;1.90;1.33;;;10.80;99.90;;;;;;4931611;29;20410;-71
2023/04/11 09:52:52;;;;;;;4.63;1.57;;;10.80;99.90;;;;;;4931849;29;20220;-71
2023/04/11 09:55:57;;;;;;;3.57;1.83;;;11.00;99.90;;;;;;4931730;29;20223;-71
2023/04/11 10:01:48;;;;;;;3.90;1.60;;;11.30;99.90;;;;;;4933175;29;20204;-71
2023/04/11 10:04:37;;;;;;;4.90;1.80;;;11.40;99.90;;;;;;4950916;28;20403;-72
2023/04/11 10:07:12;;;;;;;3.17;1.70;;;11.60;99.90;;;;;;4945314;28;20284;-71
2023/04/11 10:09:43;;;;;;;2.80;1.40;;;11.60;99.90;;;;;;4931568;29;20236;-71
2023/04/11 10:12:10;;;;;;;3.87;1.53;;;11.70;99.90;;;;;;4931847;29;20236;-71
2023/04/11 10:14:45;;;;;;;2.60;1.37;;;11.80;99.90;;;;;;4931913;29;20228;-71
2023/04/11 10:17:17;;;;;;;2.70;1.37;;;11.90;99.90;;;;;;4931063;29;20251;-71
2023/04/11 10:19:45;;;;;;;2.63;1.50;;;11.80;99.90;;;;;;4932231;29;20259;-71
2023/04/11 10:22:50;;;;;;;4.83;1.83;;;11.70;99.90;;;;;;4931262;29;20576;-70
2023/04/11 10:25:20;;;;;;;3.47;1.77;;;11.80;99.90;;;;;;4931313;29;20709;-71
2023/04/11 10:27:49;;;;;;;4.63;1.60;;;12.00;99.90;;;;;;4931532;29;20774;-71
2023/04/11 10:30:16;;;;;;;2.93;1.60;;;12.10;99.90;;;;;;4931177;29;20304;-71
2023/04/11 10:33:09;;;;;;;2.27;1.37;;;12.20;99.90;;;;;;4931114;29;20299;-71
2023/04/11 10:35:55;;;;;;;3.00;1.40;;;12.10;99.90;;;;;;4931203;29;20204;-71
2023/04/11 10:38:46;;;;;;;3.67;1.40;;;12.20;99.90;;;;;;4930803;29;20268;-71
2023/04/11 10:41:30;;;;;;;2.43;1.13;;;12.50;99.90;;;;;;4930928;29;20219;-71
2023/04/11 10:44:21;;;;;;;3.70;1.27;;;12.40;99.90;;;;;;4930491;29;20196;-71
2023/04/11 10:46:53;;;;;;;2.50;1.30;;;12.20;99.90;;;;;;4931325;29;20196;-71
2023/04/11 10:49:34;;;;;;;3.83;1.20;;;12.00;99.90;;;;;;4930986;29;20200;-71
2023/04/11 10:52:21;;;;;;;2.60;1.40;;;11.90;99.90;;;;;;4930600;29;20252;-71
2023/04/11 10:54:49;;;;;;;2.37;1.07;;;11.70;99.90;;;;;;4931250;29;20204;-71
2023/04/11 10:57:18;;;;;;;1.53;1.10;;;11.70;99.90;;;;;;4931134;29;20933;-71
2023/04/11 11:00:00;;;;;;;1.73;1.10;;;11.70;99.90;;;;;;4930370;29;20216;-70
2023/04/11 11:02:40;;;;;;;1.30;0.90;;;11.80;99.90;;;;;;4930905;29;20319;-70
2023/04/11 11:05:20;;;;;;;2.60;0.90;;;11.80;99.90;;;;;;4931160;29;20283;-70
2023/04/11 11:07:52;;;;;;;1.20;0.77;;;11.90;99.90;;;;;;4930454;29;20247;-71
2023/04/11 11:10:45;;;;;;;2.00;1.03;;;12.20;99.90;;;;;;4930251;29;20327;-71
2023/04/11 11:13:15;;;;;;;1.23;1.00;;;12.40;99.90;;;;;;4924626;29;20219;-71
2023/04/11 11:15:47;;;;;;;1.53;1.20;;;12.40;99.90;;;;;;4929698;29;20319;-71
2023/04/11 11:18:16;;;;;;;2.57;1.10;;;12.30;99.90;;;;;;4929966;29;20693;-70
2023/04/11 11:20:43;;;;;;;2.07;1.27;;;12.40;99.90;;;;;;4930202;29;20235;-71
2023/04/11 11:23:11;;;;;;;4.30;1.50;;;12.40;99.90;;;;;;4929917;29;20890;-71
2023/04/11 11:25:38;;;;;;;1.40;1.10;;;12.60;99.90;;;;;;4929034;29;20690;-71
2023/04/11 11:28:06;;;;;;;1.87;1.30;;;12.70;99.90;;;;;;4930267;29;20617;-71
2023/04/11 11:30:36;;;;;;;1.80;1.30;;;12.90;99.90;;;;;;4929837;29;20291;-71
2023/04/11 11:33:16;;;;;;;1.33;1.00;;;12.90;99.90;;;;;;4927882;29;20826;-71
2023/04/11 11:35:46;;;;;;;3.30;1.13;;;12.90;99.90;;;;;;4911014;29;20216;-71
2023/04/11 11:38:13;;;;;;;2.30;1.13;;;12.90;99.90;;;;;;4910991;29;20217;-71
2023/04/11 11:40:40;;;;;;;2.83;1.10;;;12.80;99.90;;;;;;4910837;29;20212;-71
2023/04/11 11:43:07;;;;;;;4.83;1.37;;;12.90;99.90;;;;;;4911093;29;20212;-71
2023/04/11 11:45:36;;;;;;;3.87;1.40;;;13.10;99.90;;;;;;4910983;29;20826;-71
2023/04/11 11:48:02;;;;;;;3.33;1.60;;;13.10;99.90;;;;;;4912246;29;20296;-71
2023/04/11 11:50:31;;;;;;;1.70;1.40;;;13.20;99.90;;;;;;4929460;29;20319;-71
2023/04/11 11:53:10;;;;;;;1.80;1.10;;;13.40;99.90;;;;;;4928982;29;20247;-71
2023/04/11 11:55:39;;;;;;;2.73;1.43;;;13.50;99.90;;;;;;4929451;29;20196;-71
2023/04/11 11:58:06;;;;;;;1.93;1.23;;;13.60;99.90;;;;;;4929109;29;20243;-71
2023/04/11 12:00:38;;;;;;;2.20;1.20;;;13.40;99.90;;;;;;4910062;29;20296;-71
2023/04/11 12:03:06;;;;;;;1.60;1.00;;;13.20;99.90;;;;;;4910210;29;20201;-72
2023/04/11 12:05:34;;;;;;;1.83;1.10;;;13.20;99.90;;;;;;4910418;29;20292;-71
2023/04/11 12:08:03;;;;;;;1.63;0.80;;;13.30;99.90;;;;;;4909984;29;20651;-71
2023/04/11 12:10:37;;;;;;;1.60;1.10;;;13.40;99.90;;;;;;4910219;29;20697;-72
2023/04/11 12:13:12;;;;;;;4.03;1.10;;;13.50;99.90;;;;;;4909471;29;20742;-71
2023/04/11 12:15:45;;;;;;;2.53;1.40;;;13.40;99.90;;;;;;4909950;29;20211;-72
2023/04/11 12:18:12;;;;;;;1.20;1.10;;;13.20;99.90;;;;;;4910420;29;20229;-72
2023/04/11 12:20:40;;;;;;;1.47;0.93;;;13.00;99.90;;;;;;4910640;29;20731;-72
2023/04/11 12:23:07;;;;;;;1.67;1.10;;;13.00;99.90;;;;;;4923030;29;20579;-72
2023/04/11 12:25:34;;;;;;;1.43;1.20;;;13.20;99.90;;;;;;4929316;29;20212;-72
2023/04/11 12:28:01;;;;;;;2.80;1.33;;;13.10;99.90;;;;;;4929242;29;20220;-72
2023/04/11 12:30:27;;;;;;;1.97;1.30;;;13.40;99.90;;;;;;4929027;29;20219;-72
2023/04/11 12:32:56;;;;;;;2.47;1.13;;;13.60;99.90;;;;;;4928804;29;20307;-72
2023/04/11 12:35:23;;;;;;;1.33;1.23;;;13.60;99.90;;;;;;4929084;29;20208;-72
2023/04/11 12:37:50;;;;;;;2.37;1.70;;;13.70;99.90;;;;;;4928496;29;20251;-72
2023/04/11 12:40:17;;;;;;;1.53;1.23;;;13.70;99.90;;;;;;4928220;29;20692;-72
2023/04/11 12:42:46;;;;;;;2.47;1.20;;;13.90;99.90;;;;;;4928485;29;20307;-72
2023/04/11 12:45:13;;;;;;;1.70;1.27;;;13.80;99.90;;;;;;4928145;29;20280;-72
2023/04/11 12:47:40;;;;;;;2.33;1.30;;;13.80;99.90;;;;;;4928913;29;20211;-72
2023/04/11 12:50:10;;;;;;;2.50;1.43;;;13.70;99.90;;;;;;4928530;29;20212;-72
2023/04/11 12:52:37;;;;;;;1.70;0.87;;;13.50;99.90;;;;;;4928685;29;21127;-72
2023/04/11 12:55:06;;;;;;;1.53;1.17;;;13.40;99.90;;;;;;4928177;29;20216;-72
2023/04/11 12:57:33;;;;;;;3.33;0.70;;;13.20;99.90;;;;;;4928436;29;20701;-71
2023/04/11 13:00:00;;;;;;;0.73;0.70;;;12.60;99.90;;;;;;4927832;29;20770;-71